Hartford, Connecticut
Traffic Map
Current Weather Conditions
Hartford, Connecticut
Clear
Clear
33°
Feels Like: 37°
Wind Chill: 33° Ceiling: Unl
Heat Index: 37° Visibility: 10mi
Dew Point: 22° Wind: 10mph
Humidity: 50% Direction: 180° (S)
Pressure: 29.8in Gusts: 0mph
Raw Report DataKHFD 251953Z AUTO 18009KT 10SM CLR 33/22 A2980 RMK AO2 LTG DSNT SW SLP091 T03330217 $
Traffic Incident Summary
Active as of:
Severity:
Category:
InformationThere was an issue retrieving the traffic information for this location. Please try a different location or try again shortly.
Advertisements
Track Severe Weather on mobile